This is the latest recevied weather packets stored in our database for station/object WA4IKQ. If no packets are shown the sender has not sent any weather packets the latest 10 day(s).
| Time | Temp. | Humidity | Pressure | Rain* | Wind** | Luminosity | Snow |
|---|---|---|---|---|---|---|---|
| 1787433962 | 30° C | 62% | 1014.5 hPa | 0 mm | 0.89 m/s, 134° | - | - |
| 1787433520 | 30.56° C | 61% | 1014.7 hPa | 0 mm | 2.24 m/s, 176° | - | - |
| 1787433474 | 30.56° C | 61% | 1014.7 hPa | 0 mm | 2.24 m/s, 176° | - | - |
| 1787433363 | 30.56° C | 61% | 1014.7 hPa | 0 mm | 2.24 m/s, 176° | - | - |
| 1787432858 | 32.78° C | 56% | 1015.1 hPa | 0 mm | 8.49 m/s, 159° | - | - |
| 1787432761 | 32.78° C | 56% | 1015.1 hPa | 0 mm | 8.49 m/s, 159° | - | - |
| 1787432536 | 33.33° C | 52% | 1014.9 hPa | 0 mm | 2.68 m/s, 195° | - | - |
| 1787432461 | 33.33° C | 52% | 1014.9 hPa | 0 mm | 2.68 m/s, 195° | - | - |
| 1787432214 | 33.89° C | 51% | 1014.7 hPa | 0 mm | 3.58 m/s, 179° | - | - |
| 1787431941 | 34.44° C | 50% | 1014.6 hPa | 0 mm | 0.89 m/s, 224° | - | - |
| 1787431646 | 34.44° C | 49% | 1014.6 hPa | 0 mm | 4.47 m/s, 152° | - | - |
| 1787431562 | 34.44° C | 49% | 1014.6 hPa | 0 mm | 4.47 m/s, 152° | - | - |
| 1787430736 | 35.56° C | 44% | 1014.2 hPa | 0 mm | 0.45 m/s, 70° | - | - |
| 1787430660 | 35.56° C | 44% | 1014.2 hPa | 0 mm | 0.45 m/s, 70° | - | - |
| 1787430455 | 35.56° C | 46% | 1014.3 hPa | 0 mm | 1.34 m/s, 110° | - | - |
| 1787430361 | 35.56° C | 46% | 1014.3 hPa | 0 mm | 1.34 m/s, 110° | - | - |
| 1787430154 | 35.56° C | 45% | 1014.4 hPa | 0 mm | 3.58 m/s, 128° | - | - |
| 1787430061 | 35.56° C | 45% | 1014.4 hPa | 0 mm | 3.58 m/s, 128° | - | - |
| 1787429807 | 35.56° C | 46% | 1014.4 hPa | 0 mm | 0.45 m/s, 72° | - | - |
| 1787429763 | 35.56° C | 46% | 1014.4 hPa | 0 mm | 0.45 m/s, 72° | - | - |
| 1787429222 | 35.56° C | 45% | 1014.5 hPa | 0 mm | 0.89 m/s, 149° | - | - |
| 1787428636 | 35.56° C | 46% | 1014.6 hPa | 0 mm | 0.45 m/s, 84° | - | - |
| 1787428560 | 35.56° C | 46% | 1014.6 hPa | 0 mm | 0.45 m/s, 84° | - | - |
| 1787428341 | 35.56° C | 46% | 1014.7 hPa | 0 mm | 1.79 m/s, 188° | - | - |
| 1787428260 | 35.56° C | 46% | 1014.7 hPa | 0 mm | 1.79 m/s, 188° | - | - |
* Rain latest hour (hover to see other rain measurements)
** Current wind speed in m/s (hover to see current wind gust speed)